Time;durP1;ratioP1;P1;durP2;ratioP2;P2;SDS_P1;SDS_P2;PMS_P1;PMS_P2;Temp;Humidity;BMP_temperature;BMP_pressure;BME280_temperature;BME280_humidity;BME280_pressure;Samples;Min_cycle;Max_cycle;Signal;HPM_P1;HPM_P2
2022/08/23 00:01:33;;;;;;;4.30;4.00;;;;;;;18.17;89.56;100000.97;4891914;29;20246;-75
2022/08/23 00:04:06;;;;;;;4.30;4.00;;;;;;;18.12;89.59;100009.03;4894086;29;20227;-75
2022/08/23 00:06:31;;;;;;;4.70;4.00;;;;;;;18.09;89.95;100012.66;4890641;29;20212;-75
2022/08/23 00:08:58;;;;;;;4.10;3.70;;;;;;;18.09;90.47;100022.25;4905560;29;20203;-75
2022/08/23 00:11:42;;;;;;;5.33;4.40;;;;;;;18.07;90.92;100027.59;4892088;29;20208;-75
2022/08/23 00:14:12;;;;;;;4.60;4.20;;;;;;;18.01;91.14;100034.84;4891415;29;20271;-74
2022/08/23 00:16:38;;;;;;;4.63;4.23;;;;;;;17.94;91.40;100023.78;4910524;29;20223;-74
2022/08/23 00:19:06;;;;;;;4.40;4.00;;;;;;;17.90;91.45;100033.53;4894697;29;20193;-75
2022/08/23 00:21:31;;;;;;;4.20;3.90;;;;;;;17.90;92.01;100025.69;4906514;29;20201;-73
2022/08/23 00:23:57;;;;;;;4.97;4.57;;;;;;;17.94;91.46;100022.00;4896268;29;20197;-75
2022/08/23 00:26:22;;;;;;;4.97;4.53;;;;;;;18.02;91.67;100036.56;4892624;29;20596;-75
2022/08/23 00:28:48;;;;;;;4.87;4.27;;;;;;;18.06;91.48;100036.34;4895403;29;20637;-75
2022/08/23 00:31:14;;;;;;;4.47;4.07;;;;;;;18.09;91.12;100032.75;4895743;29;21052;-75
2022/08/23 00:33:40;;;;;;;4.70;4.30;;;;;;;18.13;90.89;100035.19;4901819;29;20545;-75
2022/08/23 00:36:05;;;;;;;4.47;3.80;;;;;;;18.19;90.52;100041.03;4908007;29;20236;-75
2022/08/23 00:38:31;;;;;;;4.30;3.90;;;;;;;18.22;90.15;100033.91;4889346;29;20196;-74
2022/08/23 00:40:56;;;;;;;4.20;3.90;;;;;;;18.27;90.04;100036.31;4894983;29;20188;-74
2022/08/23 00:49:15;;;;;;;8.03;4.43;;;;;;;18.40;89.96;100037.47;4892215;29;20699;-74
2022/08/23 00:52:23;;;;;;;5.73;3.97;;;;;;;18.43;90.25;100044.31;4891137;29;20192;-74
2022/08/23 00:54:52;;;;;;;5.00;4.30;;;;;;;18.39;90.74;100043.63;4890810;29;21055;-75
2022/08/23 00:57:18;;;;;;;4.23;3.90;;;;;;;18.35;90.75;100043.84;4892051;29;20784;-76
2022/08/23 00:59:44;;;;;;;4.83;4.43;;;;;;;18.32;91.25;100042.19;4914687;29;20184;-75
2022/08/23 01:02:11;;;;;;;8.20;4.60;;;;;;;18.28;91.84;100038.88;4891888;29;20731;-76
2022/08/23 01:04:41;;;;;;;5.77;4.30;;;;;;;18.22;92.48;100033.06;4885132;29;20197;-75
2022/08/23 01:07:45;;;;;;;7.77;4.77;;;;;;;18.13;92.92;100029.94;4904797;29;20653;-75
2022/08/23 01:10:17;;;;;;;6.20;5.10;;;;;;;18.06;93.51;100036.34;4905956;29;20233;-75
2022/08/23 01:12:51;;;;;;;6.67;4.50;;;;;;;17.99;93.49;100032.31;4890464;29;20277;-75
2022/08/23 01:15:25;;;;;;;6.97;4.43;;;;;;;17.94;93.60;100039.47;4888721;29;20224;-74
2022/08/23 01:18:01;;;;;;;5.33;4.33;;;;;;;17.89;93.15;100037.06;4884371;29;20189;-75
2022/08/23 01:20:34;;;;;;;4.27;3.80;;;;;;;17.86;93.02;100044.19;4904905;29;20260;-74
2022/08/23 01:23:29;;;;;;;4.73;4.33;;;;;;;17.84;93.21;100039.03;4889173;29;20626;-74
2022/08/23 01:25:55;;;;;;;4.30;3.90;;;;;;;17.84;93.55;100039.03;4887152;29;21081;-75
2022/08/23 01:28:20;;;;;;;5.13;4.60;;;;;;;17.83;93.73;100035.56;4894296;29;20245;-74
2022/08/23 01:30:47;;;;;;;7.80;7.10;;;;;;;17.80;93.70;100047.91;4893742;29;20205;-76
2022/08/23 01:33:13;;;;;;;10.73;9.73;;;;;;;17.75;93.02;100040.28;4911855;29;20645;-77
2022/08/23 01:35:43;;;;;;;8.00;7.40;;;;;;;17.74;93.19;100050.81;4897087;29;20213;-76
2022/08/23 01:38:10;;;;;;;7.83;7.23;;;;;;;17.72;93.27;100039.56;4898474;29;20271;-75
2022/08/23 01:40:36;;;;;;;6.87;6.27;;;;;;;17.73;93.66;100043.88;4896503;29;20217;-76
2022/08/23 01:43:01;;;;;;;6.80;6.27;;;;;;;17.74;93.59;100045.59;4892901;29;20194;-76
2022/08/23 01:45:28;;;;;;;6.73;6.13;;;;;;;17.72;93.96;100043.00;4897294;29;20284;-75
2022/08/23 01:47:54;;;;;;;6.67;6.07;;;;;;;17.70;94.13;100039.59;4908528;29;20263;-76
2022/08/23 01:50:19;;;;;;;6.80;6.30;;;;;;;17.66;94.50;100045.91;4915072;29;20737;-75
2022/08/23 01:52:45;;;;;;;7.13;6.43;;;;;;;17.63;95.02;100039.03;4898064;29;20185;-76
2022/08/23 01:55:10;;;;;;;7.90;7.20;;;;;;;17.59;95.76;100042.72;4890575;29;20276;-75
2022/08/23 01:57:37;;;;;;;8.00;7.30;;;;;;;17.56;96.47;100034.97;4894211;29;20586;-75
2022/08/23 02:00:06;;;;;;;7.80;7.10;;;;;;;17.47;96.19;100036.22;4896349;29;20197;-76
2022/08/23 02:02:32;;;;;;;7.63;6.43;;;;;;;17.38;96.53;100041.84;4891258;29;20527;-75
2022/08/23 02:04:57;;;;;;;5.53;4.87;;;;;;;17.30;96.68;100036.06;4910202;29;20283;-75
2022/08/23 02:07:27;;;;;;;5.97;5.43;;;;;;;17.23;96.39;100045.91;4899545;29;20229;-75
2022/08/23 02:09:52;;;;;;;5.73;5.10;;;;;;;17.14;96.60;100049.75;4900460;29;20199;-78
2022/08/23 02:12:18;;;;;;;6.47;4.97;;;;;;;17.08;96.62;100044.78;4894598;29;20238;-75
2022/08/23 02:14:43;;;;;;;7.73;5.43;;;;;;;17.05;96.37;100047.53;4894126;29;20185;-75
2022/08/23 02:17:09;;;;;;;5.57;5.00;;;;;;;17.04;96.89;100053.66;4899254;29;20274;-74
2022/08/23 02:19:36;;;;;;;5.60;5.10;;;;;;;17.05;97.31;100050.13;4898557;29;20670;-75
2022/08/23 02:22:03;;;;;;;6.93;5.90;;;;;;;17.04;97.60;100059.72;4891988;29;21457;-74
2022/08/23 02:24:29;;;;;;;5.77;5.17;;;;;;;17.02;98.60;100058.94;4897228;29;20191;-76
2022/08/23 02:27:00;;;;;;;6.23;5.63;;;;;;;17.01;99.14;100061.63;4905688;29;20726;-74
2022/08/23 02:29:28;;;;;;;6.40;4.73;;;;;;;16.97;99.02;100068.72;4892425;29;20185;-74
2022/08/23 02:31:55;;;;;;;8.43;5.30;;;;;;;16.96;99.51;100069.66;4895392;29;20240;-74
2022/08/23 02:34:21;;;;;;;7.07;5.43;;;;;;;16.96;100.00;100069.66;4892760;29;20266;-75
2022/08/23 02:36:46;;;;;;;5.20;4.80;;;;;;;16.92;100.00;100076.72;4893852;29;20242;-74
2022/08/23 02:39:17;;;;;;;6.93;5.07;;;;;;;16.92;100.00;100075.84;4893311;29;20196;-76
2022/08/23 02:41:42;;;;;;;6.73;5.03;;;;;;;16.90;100.00;100078.53;4890303;29;20198;-75
2022/08/23 02:44:09;;;;;;;5.17;4.77;;;;;;;16.89;100.00;100089.03;4895804;29;20246;-75
2022/08/23 02:46:34;;;;;;;6.33;4.67;;;;;;;16.86;100.00;100094.41;4894605;29;20209;-75
2022/08/23 02:49:00;;;;;;;5.20;4.80;;;;;;;16.86;100.00;100097.03;4894036;29;20571;-75
2022/08/23 02:51:25;;;;;;;5.47;4.70;;;;;;;16.85;100.00;100090.94;4892412;29;20725;-75
2022/08/23 02:53:51;;;;;;;7.83;5.20;;;;;;;16.81;100.00;100088.50;4893934;29;20549;-74
2022/08/23 02:56:17;;;;;;;5.57;5.03;;;;;;;16.76;100.00;100089.50;4907181;29;20221;-74
2022/08/23 02:58:44;;;;;;;5.23;4.70;;;;;;;16.73;100.00;100094.00;4907441;29;20185;-74
2022/08/23 03:01:23;;;;;;;7.27;5.13;;;;;;;16.67;100.00;100092.50;4903398;29;20245;-74
2022/08/23 03:03:49;;;;;;;5.80;5.20;;;;;;;16.59;100.00;100100.59;4891709;29;20191;-74
2022/08/23 03:06:15;;;;;;;5.50;4.97;;;;;;;16.55;100.00;100099.00;4893705;29;20628;-79
2022/08/23 03:08:41;;;;;;;7.90;5.37;;;;;;;16.51;100.00;100107.84;4890516;29;20219;-77
2022/08/23 03:11:12;;;;;;;5.53;5.03;;;;;;;16.42;100.00;100109.03;4892443;29;20203;-75
2022/08/23 03:13:38;;;;;;;5.80;5.30;;;;;;;16.33;100.00;100112.00;4891892;29;20200;-74
2022/08/23 03:16:03;;;;;;;6.43;5.37;;;;;;;16.29;100.00;100106.03;4893070;29;20294;-74
2022/08/23 03:18:29;;;;;;;5.60;5.10;;;;;;;16.26;100.00;100106.16;4891106;29;20278;-77
2022/08/23 03:20:54;;;;;;;9.60;5.43;;;;;;;16.26;100.00;100108.75;4894890;29;20203;-75
2022/08/23 03:23:20;;;;;;;5.87;4.90;;;;;;;16.27;100.00;100106.97;4891316;29;20235;-74
2022/08/23 03:25:45;;;;;;;5.63;5.03;;;;;;;16.28;100.00;100103.47;4901722;29;20261;-76
2022/08/23 03:28:11;;;;;;;7.30;5.00;;;;;;;16.29;100.00;100103.44;4891161;29;20214;-74
2022/08/23 03:30:36;;;;;;;5.67;5.17;;;;;;;16.30;100.00;100107.75;4891560;29;20199;-75
2022/08/23 03:33:02;;;;;;;6.20;5.67;;;;;;;16.28;100.00;100106.94;4889645;29;20276;-78
2022/08/23 03:35:28;;;;;;;4.93;4.53;;;;;;;16.28;100.00;100112.16;4891601;29;20204;-76
2022/08/23 03:37:54;;;;;;;6.50;6.00;;;;;;;16.28;100.00;100111.28;4894899;29;20199;-74
2022/08/23 03:40:21;;;;;;;6.23;5.63;;;;;;;16.26;100.00;100119.19;4893661;29;20207;-74
2022/08/23 03:42:47;;;;;;;7.27;5.60;;;;;;;16.24;100.00;100121.00;4902826;29;20564;-75
2022/08/23 03:45:12;;;;;;;5.70;5.20;;;;;;;16.22;100.00;100117.59;4892608;29;20199;-76
2022/08/23 03:47:38;;;;;;;6.00;5.50;;;;;;;16.23;100.00;100123.69;4891952;29;20414;-76
2022/08/23 03:50:04;;;;;;;6.20;5.60;;;;;;;16.21;100.00;100123.72;4895263;29;20295;-74
2022/08/23 03:52:30;;;;;;;7.33;5.70;;;;;;;16.19;100.00;100129.91;4894057;29;20205;-73
2022/08/23 03:54:55;;;;;;;6.07;5.37;;;;;;;16.14;100.00;100130.91;4890705;29;20672;-74
2022/08/23 03:57:20;;;;;;;6.57;5.90;;;;;;;16.12;100.00;100127.50;4891102;29;20232;-76
2022/08/23 03:59:47;;;;;;;6.30;5.70;;;;;;;16.09;100.00;100131.97;4888195;29;20203;-74
2022/08/23 04:02:13;;;;;;;6.57;4.90;;;;;;;16.04;100.00;100134.75;4892637;29;20242;-77
2022/08/23 04:04:39;;;;;;;6.20;5.60;;;;;;;16.02;100.00;100133.94;4887823;29;20279;-76
2022/08/23 04:07:04;;;;;;;5.60;5.20;;;;;;;16.01;100.00;100140.06;4888556;29;20312;-75
2022/08/23 04:09:30;;;;;;;6.00;5.50;;;;;;;15.99;100.00;100139.28;4891879;29;20192;-74
2022/08/23 04:11:56;;;;;;;5.57;5.13;;;;;;;15.95;100.00;100135.91;4892945;29;20181;-76
2022/08/23 04:14:22;;;;;;;6.07;5.57;;;;;;;15.95;100.00;100138.53;4889597;29;20205;-75
2022/08/23 04:16:47;;;;;;;6.00;5.50;;;;;;;15.94;100.00;100149.03;4893405;29;20213;-76
2022/08/23 04:19:14;;;;;;;5.97;5.47;;;;;;;15.93;100.00;100150.78;4893193;29;20196;-75
2022/08/23 04:21:42;;;;;;;5.90;5.40;;;;;;;15.91;100.00;100141.31;4897516;29;20280;-75
2022/08/23 04:24:08;;;;;;;7.03;6.10;;;;;;;15.88;100.00;100155.31;4898533;29;22060;-75
2022/08/23 04:26:33;;;;;;;6.33;5.67;;;;;;;15.85;100.00;100152.81;4890584;29;20292;-74
2022/08/23 04:28:59;;;;;;;6.97;5.37;;;;;;;15.81;100.00;100152.00;4905281;29;20561;-75
2022/08/23 04:31:25;;;;;;;6.10;5.60;;;;;;;15.81;100.00;100159.81;4890245;29;20275;-75
2022/08/23 04:33:52;;;;;;;6.53;5.80;;;;;;;15.82;100.00;100158.91;4906324;29;20187;-74
2022/08/23 04:36:18;;;;;;;6.77;5.73;;;;;;;15.85;100.00;100158.03;4893834;29;20234;-74
2022/08/23 04:38:43;;;;;;;6.33;5.33;;;;;;;15.85;100.00;100171.91;4890881;29;20187;-76
2022/08/23 04:43:53;;;;;;;5.90;5.30;;;;;;;15.87;100.00;100169.25;4891343;29;20244;-74
2022/08/23 04:46:19;;;;;;;6.03;5.43;;;;;;;15.88;100.00;100178.81;4893966;29;20633;-75
2022/08/23 04:48:45;;;;;;;7.03;5.33;;;;;;;15.89;100.00;100177.88;4907483;29;20235;-75
2022/08/23 04:51:11;;;;;;;6.27;5.70;;;;;;;15.92;100.00;100179.53;4889143;29;20220;-77
2022/08/23 04:53:37;;;;;;;6.87;6.30;;;;;;;15.96;100.00;100179.38;4887692;29;20255;-74
2022/08/23 04:56:03;;;;;;;6.40;5.80;;;;;;;15.99;100.00;100181.91;4908240;29;20938;-74
2022/08/23 04:58:31;;;;;;;6.47;5.90;;;;;;;16.04;100.00;100192.19;4891086;29;20437;-74
2022/08/23 05:00:59;;;;;;;6.60;6.00;;;;;;;16.09;100.00;100192.03;4912352;29;20190;-75
2022/08/23 05:03:26;;;;;;;6.03;5.33;;;;;;;16.14;100.00;100190.13;4899246;29;20275;-76
2022/08/23 05:05:52;;;;;;;6.87;6.23;;;;;;;16.19;100.00;100192.56;4901664;29;20221;-77
2022/08/23 05:08:18;;;;;;;5.63;5.20;;;;;;;16.23;100.00;100189.81;4912064;29;20626;-74
2022/08/23 05:10:43;;;;;;;5.97;5.13;;;;;;;16.27;100.00;100196.63;4898001;29;20193;-75
2022/08/23 05:13:09;;;;;;;5.77;5.30;;;;;;;16.34;100.00;100201.63;4895622;29;20300;-75
2022/08/23 05:15:34;;;;;;;5.57;5.10;;;;;;;16.40;100.00;100207.53;4896798;29;20216;-74
2022/08/23 05:18:00;;;;;;;6.13;5.53;;;;;;;16.49;100.00;100200.25;4898935;29;20191;-76
2022/08/23 05:20:25;;;;;;;6.07;5.53;;;;;;;16.62;100.00;100209.38;4897048;29;20999;-74
2022/08/23 05:22:51;;;;;;;6.20;5.30;;;;;;;16.72;100.00;100209.91;4899108;29;20195;-74
2022/08/23 05:25:16;;;;;;;5.90;5.40;;;;;;;16.84;100.00;100213.84;4907659;29;20192;-74
2022/08/23 05:27:42;;;;;;;6.77;5.73;;;;;;;16.99;100.00;100217.66;4894241;29;20253;-75
2022/08/23 05:30:08;;;;;;;8.50;5.73;;;;;;;17.41;100.00;100208.25;4898043;29;20282;-75
2022/08/23 05:32:33;;;;;;;8.50;5.80;;;;;;;18.22;100.00;100222.50;4895297;29;20193;-75
2022/08/23 05:34:58;;;;;;;8.43;5.90;;;;;;;18.98;97.12;100219.25;4904058;29;20192;-74
2022/08/23 05:37:24;;;;;;;5.67;5.07;;;;;;;19.56;94.84;100220.09;4906891;29;20218;-75
2022/08/23 05:39:49;;;;;;;6.30;4.93;;;;;;;20.11;93.09;100218.38;4899492;29;20197;-75
2022/08/23 05:42:17;;;;;;;6.13;5.60;;;;;;;20.77;90.85;100226.44;4901773;29;20292;-74
2022/08/23 05:44:44;;;;;;;6.53;5.93;;;;;;;21.45;88.98;100225.41;4897215;29;20185;-74
2022/08/23 05:47:12;;;;;;;6.47;5.13;;;;;;;22.14;86.82;100230.34;4903739;29;20231;-75
2022/08/23 05:49:38;;;;;;;5.53;4.53;;;;;;;22.83;85.02;100230.69;4896104;29;20569;-74
2022/08/23 05:52:04;;;;;;;4.90;3.90;;;;;;;23.44;83.44;100231.28;4893792;29;20185;-74
2022/08/23 05:54:29;;;;;;;5.00;4.50;;;;;;;24.00;81.95;100229.53;4907088;29;20196;-75
2022/08/23 05:56:55;;;;;;;5.93;4.47;;;;;;;24.47;80.62;100235.19;4893329;29;20651;-75
2022/08/23 05:59:21;;;;;;;9.97;5.47;;;;;;;24.88;79.34;100239.44;4891181;29;20192;-75
2022/08/23 06:01:47;;;;;;;8.43;5.60;;;;;;;25.18;78.44;100240.03;4906688;29;20208;-75
2022/08/23 06:04:13;;;;;;;7.73;5.43;;;;;;;25.42;77.47;100240.13;4895157;29;20201;-74
2022/08/23 06:06:40;;;;;;;8.57;5.70;;;;;;;25.61;76.50;100241.44;4890447;29;20209;-75
2022/08/23 06:09:08;;;;;;;8.90;5.50;;;;;;;25.97;75.66;100247.59;4895246;29;20223;-74
2022/08/23 06:11:34;;;;;;;5.63;4.57;;;;;;;26.43;75.01;100244.16;4895907;29;20197;-75
2022/08/23 06:14:01;;;;;;;8.30;5.57;;;;;;;26.86;73.97;100241.81;4891184;29;20185;-75
2022/08/23 06:16:30;;;;;;;7.30;4.77;;;;;;;27.18;73.04;100249.03;4897803;29;20240;-75
2022/08/23 06:18:56;;;;;;;7.80;4.87;;;;;;;27.56;72.40;100241.63;4912509;29;20196;-75
2022/08/23 06:21:24;;;;;;;10.53;5.00;;;;;;;27.91;71.79;100244.03;4917508;29;20210;-74
2022/08/23 06:23:50;;;;;;;6.10;5.30;;;;;;;28.24;71.25;100233.41;4903337;29;20191;-75
2022/08/23 06:26:22;;;;;;;6.80;4.37;;;;;;;28.56;70.81;100238.63;4894090;29;20208;-74
2022/08/23 06:28:50;;;;;;;5.83;3.87;;;;;;;28.85;69.66;100243.28;4901486;29;20447;-74
2022/08/23 06:31:43;;;;;;;5.40;4.20;;;;;;;29.07;68.97;100251.22;4901342;29;20192;-76
2022/08/23 06:34:01;;;;;;;6.43;3.97;;;;;;;29.28;68.25;100243.13;4897861;29;20626;-74
2022/08/23 06:36:29;;;;;;;3.80;3.50;;;;;;;29.46;67.41;100246.84;4902445;29;20332;-76
2022/08/23 06:38:55;;;;;;;6.47;3.90;;;;;;;29.64;66.91;100241.69;4896297;29;20189;-74
2022/08/23 06:41:20;;;;;;;7.00;3.80;;;;;;;29.82;66.17;100257.00;4903273;29;20188;-75
2022/08/23 06:43:45;;;;;;;5.57;3.80;;;;;;;29.96;65.54;100261.94;4898044;29;20532;-74
2022/08/23 06:46:17;;;;;;;3.77;3.47;;;;;;;30.14;65.21;100252.38;4897911;29;20317;-75
2022/08/23 06:48:44;;;;;;;3.70;3.40;;;;;;;30.19;63.76;100258.13;4895306;29;20300;-74
2022/08/23 06:51:19;;;;;;;3.70;3.10;;;;;;;30.19;63.47;100260.78;4892156;29;20196;-75
2022/08/23 06:53:45;;;;;;;10.73;3.70;;;;;;;30.23;63.36;100262.19;4887653;29;20192;-74
2022/08/23 06:56:10;;;;;;;20.43;4.90;;;;;;;30.20;63.47;100262.47;4899899;29;20578;-74
2022/08/23 06:58:35;;;;;;;16.00;4.73;;;;;;;30.29;62.78;100258.97;4900491;29;20571;-74
2022/08/23 07:01:09;;;;;;;10.27;4.00;;;;;;;30.31;62.93;100264.16;4909305;29;20285;-74
2022/08/23 07:03:35;;;;;;;6.97;2.93;;;;;;;30.37;63.15;100258.25;4896539;29;20216;-74
2022/08/23 07:06:00;;;;;;;4.77;3.10;;;;;;;30.42;62.61;100256.84;4894858;29;20239;-74
2022/08/23 07:08:26;;;;;;;8.23;2.90;;;;;;;30.46;62.43;100257.38;4893899;29;20215;-74
2022/08/23 07:10:54;;;;;;;8.90;3.50;;;;;;;30.41;62.55;100257.81;4893181;29;20232;-75
2022/08/23 07:13:20;;;;;;;5.43;2.77;;;;;;;30.36;62.60;100256.56;4893864;29;20252;-74
2022/08/23 07:15:46;;;;;;;6.27;2.87;;;;;;;30.34;62.92;100256.69;4894492;29;20690;-75
2022/08/23 07:18:12;;;;;;;4.67;2.43;;;;;;;30.27;62.94;100259.09;4893737;29;20730;-75
2022/08/23 07:20:37;;;;;;;3.10;2.40;;;;;;;30.22;62.77;100258.69;4908579;29;20300;-73
2022/08/23 07:23:02;;;;;;;6.87;2.40;;;;;;;30.17;62.93;100254.78;4893251;29;20289;-76
2022/08/23 07:25:28;;;;;;;5.57;2.87;;;;;;;30.13;62.87;100272.06;4894020;29;20192;-75
2022/08/23 07:27:53;;;;;;;3.70;2.20;;;;;;;29.99;63.31;100266.16;4908876;29;20209;-74
2022/08/23 07:30:20;;;;;;;2.93;2.63;;;;;;;29.88;63.28;100263.59;4892394;29;20213;-75
2022/08/23 07:32:46;;;;;;;2.70;2.37;;;;;;;29.78;63.69;100264.44;4892541;29;20200;-74
2022/08/23 07:35:11;;;;;;;2.73;2.47;;;;;;;29.68;63.94;100266.25;4890839;29;20211;-74
2022/08/23 07:37:37;;;;;;;4.03;2.43;;;;;;;29.58;64.37;100265.38;4902571;29;20204;-73
2022/08/23 07:40:03;;;;;;;4.30;2.87;;;;;;;29.41;64.74;100267.75;4908084;29;20761;-75
2022/08/23 07:42:29;;;;;;;2.63;2.43;;;;;;;29.28;65.14;100275.09;4893090;29;20215;-75
2022/08/23 07:44:54;;;;;;;3.53;2.40;;;;;;;29.16;65.24;100271.72;4894098;29;20177;-75
2022/08/23 07:47:20;;;;;;;3.27;2.07;;;;;;;29.04;65.73;100274.47;4893684;29;20308;-75
2022/08/23 07:49:45;;;;;;;3.47;2.77;;;;;;;28.90;64.93;100278.34;4891739;29;20280;-75
2022/08/23 07:52:11;;;;;;;3.53;2.27;;;;;;;28.66;64.88;100270.63;4893345;29;20276;-75
2022/08/23 07:54:36;;;;;;;2.67;2.40;;;;;;;28.50;65.43;100271.13;4893903;29;20205;-74
2022/08/23 07:57:01;;;;;;;5.00;2.63;;;;;;;28.38;65.99;100264.16;4906847;29;20213;-74
2022/08/23 07:59:28;;;;;;;3.93;2.47;;;;;;;28.26;65.97;100272.22;4887609;29;20637;-75
2022/08/23 08:01:53;;;;;;;2.60;2.40;;;;;;;28.15;66.26;100277.59;4905219;29;20196;-74
2022/08/23 08:04:19;;;;;;;2.53;2.33;;;;;;;28.03;66.51;100279.41;4883973;29;20197;-75
2022/08/23 08:06:48;;;;;;;2.23;2.03;;;;;;;27.95;66.38;100276.56;4886963;29;20576;-75
2022/08/23 08:09:15;;;;;;;2.50;2.23;;;;;;;27.84;66.40;100280.09;4907881;29;20304;-77
2022/08/23 08:11:46;;;;;;;2.60;2.40;;;;;;;27.82;66.30;100284.69;4912793;29;20180;-75
2022/08/23 08:14:11;;;;;;;2.53;2.33;;;;;;;27.77;66.69;100292.19;4898749;29;20745;-74
2022/08/23 08:16:41;;;;;;;2.40;2.20;;;;;;;27.71;66.80;100288.22;4910511;28;20205;-74
2022/08/23 08:19:08;;;;;;;3.93;2.80;;;;;;;27.63;67.07;100286.19;4899610;29;20691;-75
2022/08/23 08:21:35;;;;;;;4.23;2.40;;;;;;;27.56;67.40;100293.00;4895975;29;20197;-76
2022/08/23 08:24:01;;;;;;;3.77;2.70;;;;;;;27.45;67.32;100291.19;4899141;29;20192;-74
2022/08/23 08:26:27;;;;;;;4.87;2.90;;;;;;;27.33;67.08;100286.84;4890438;29;20223;-74
2022/08/23 08:28:55;;;;;;;5.03;2.90;;;;;;;27.17;66.42;100289.84;4893159;29;20296;-75
2022/08/23 08:31:21;;;;;;;5.53;3.10;;;;;;;27.02;67.15;100289.25;4899885;29;20207;-73
2022/08/23 08:33:46;;;;;;;3.20;2.77;;;;;;;26.97;68.18;100286.97;4894902;29;20193;-74
2022/08/23 08:36:36;;;;;;;5.57;3.13;;;;;;;26.97;68.52;100292.28;4897081;29;20224;-75
2022/08/23 08:39:06;;;;;;;2.90;2.60;;;;;;;26.98;68.10;100288.66;4890580;29;20181;-74
2022/08/23 08:41:49;;;;;;;3.73;2.80;;;;;;;27.01;68.35;100292.88;4895502;29;20239;-76
2022/08/23 08:44:48;;;;;;;3.33;3.07;;;;;;;27.00;68.45;100297.34;4911402;29;20283;-74
2022/08/23 08:47:49;;;;;;;3.67;2.90;;;;;;;27.01;68.51;100299.03;4902120;29;20726;-75
2022/08/23 08:50:25;;;;;;;3.63;2.60;;;;;;;27.02;68.22;100297.22;4903999;29;20210;-75
2022/08/23 08:53:06;;;;;;;3.63;2.70;;;;;;;27.01;68.18;100293.72;4901014;29;20590;-75
2022/08/23 08:55:46;;;;;;;6.20;2.67;;;;;;;27.02;68.04;100295.41;4901699;29;20604;-74
2022/08/23 08:58:23;;;;;;;3.53;2.77;;;;;;;27.06;68.17;100298.69;4899506;29;20184;-75
2022/08/23 09:00:48;;;;;;;3.93;3.03;;;;;;;27.02;67.22;100295.41;4892199;29;20243;-75
2022/08/23 09:03:20;;;;;;;3.07;2.57;;;;;;;27.01;67.45;100299.03;4891863;29;20291;-75
2022/08/23 09:06:15;;;;;;;4.67;2.60;;;;;;;27.07;67.50;100295.91;4907151;29;20219;-75
2022/08/23 09:09:01;;;;;;;3.90;2.67;;;;;;;27.17;67.07;100287.19;4891863;29;20705;-76
2022/08/23 09:11:44;;;;;;;3.50;2.43;;;;;;;27.24;66.30;100291.91;4910554;29;20205;-76
2022/08/23 09:14:15;;;;;;;3.77;2.83;;;;;;;27.21;66.05;100299.28;4906200;29;20693;-74
2022/08/23 09:17:08;;;;;;;2.60;2.40;;;;;;;27.24;66.78;100299.88;4892251;29;20208;-74
2022/08/23 09:19:36;;;;;;;2.93;2.33;;;;;;;27.32;67.08;100290.47;4893226;29;20185;-73
2022/08/23 09:22:10;;;;;;;2.80;2.50;;;;;;;27.38;66.63;100290.81;4892303;29;20186;-74
2022/08/23 09:24:35;;;;;;;3.20;2.90;;;;;;;27.35;66.09;100291.06;4905977;29;20556;-75
2022/08/23 09:27:02;;;;;;;4.43;3.00;;;;;;;27.34;66.36;100288.53;4892303;29;20260;-74
2022/08/23 09:29:33;;;;;;;3.00;2.70;;;;;;;27.41;66.05;100287.06;4886336;29;20185;-76
2022/08/23 09:32:05;;;;;;;2.77;2.27;;;;;;;27.41;65.85;100292.38;4906885;29;20772;-76
2022/08/23 09:34:36;;;;;;;4.47;2.50;;;;;;;27.47;66.09;100299.88;4892279;29;20673;-75
2022/08/23 09:37:08;;;;;;;3.13;2.60;;;;;;;27.59;66.53;100291.88;4890467;29;20295;-76
2022/08/23 09:39:36;;;;;;;2.93;2.53;;;;;;;27.67;66.74;100286.81;4906992;29;20243;-76
2022/08/23 09:42:02;;;;;;;2.80;2.50;;;;;;;27.76;66.71;100293.16;4890353;29;20195;-74
2022/08/23 09:44:42;;;;;;;3.30;2.80;;;;;;;27.84;66.61;100275.63;4903891;29;20201;-75
2022/08/23 09:47:14;;;;;;;3.60;2.50;;;;;;;27.90;65.99;100276.94;4892116;29;20213;-74
2022/08/23 09:49:42;;;;;;;3.70;2.70;;;;;;;27.89;65.33;100280.56;4910186;29;20197;-74
2022/08/23 09:52:20;;;;;;;3.33;2.50;;;;;;;27.92;65.25;100280.31;4893679;29;20200;-74
2022/08/23 09:55:01;;;;;;;3.77;2.70;;;;;;;28.03;64.79;100276.75;4892982;29;20276;-76
2022/08/23 09:57:30;;;;;;;2.40;2.17;;;;;;;28.07;64.41;100275.53;4907958;29;20225;-75
2022/08/23 10:00:19;;;;;;;3.27;2.20;;;;;;;28.13;64.40;100274.22;4893170;29;20208;-75
2022/08/23 10:02:44;;;;;;;3.13;2.83;;;;;;;28.19;64.36;100270.19;4908852;29;20193;-74
2022/08/23 10:05:30;;;;;;;2.43;2.23;;;;;;;28.23;64.42;100267.13;4892530;29;20196;-75
2022/08/23 10:08:00;;;;;;;2.33;2.13;;;;;;;28.32;64.18;100270.84;4908175;29;20607;-75
2022/08/23 10:10:42;;;;;;;2.63;2.43;;;;;;;28.34;64.01;100268.91;4895100;29;20192;-74
2022/08/23 10:13:08;;;;;;;3.03;2.67;;;;;;;28.40;63.60;100259.53;4893207;29;20211;-74
2022/08/23 10:15:39;;;;;;;3.40;2.50;;;;;;;28.51;64.42;100255.97;4894830;29;20274;-75
2022/08/23 10:18:15;;;;;;;2.90;2.70;;;;;;;28.60;63.94;100258.69;4895252;29;20177;-75
2022/08/23 10:20:48;;;;;;;2.40;2.20;;;;;;;28.63;63.44;100257.56;4893385;29;20680;-74
2022/08/23 10:23:33;;;;;;;2.30;2.10;;;;;;;28.72;63.48;100245.28;4890883;29;20243;-75
2022/08/23 10:25:59;;;;;;;3.03;2.63;;;;;;;28.84;63.09;100248.75;4906421;29;20234;-74
2022/08/23 10:32:00;;;;;;;3.53;2.70;;;;;;;28.85;61.70;100243.28;4892931;29;20526;-76
2022/08/23 10:34:29;;;;;;;2.77;2.53;;;;;;;28.84;61.68;100241.59;4889664;29;20193;-75
2022/08/23 10:37:06;;;;;;;3.17;2.87;;;;;;;28.88;61.68;100237.69;4891090;29;20217;-75
2022/08/23 10:39:31;;;;;;;2.60;2.40;;;;;;;28.92;61.70;100237.44;4894230;29;20693;-74
2022/08/23 10:42:02;;;;;;;2.70;2.50;;;;;;;28.98;61.50;100239.53;4898098;29;20192;-76
2022/08/23 10:44:34;;;;;;;2.93;2.60;;;;;;;28.97;61.11;100235.19;4906177;29;20661;-74
2022/08/23 10:47:26;;;;;;;3.20;2.90;;;;;;;28.87;60.80;100238.66;4903970;29;20566;-75
2022/08/23 10:49:53;;;;;;;3.13;2.90;;;;;;;28.83;60.49;100231.09;4905898;29;20599;-76
2022/08/23 10:52:29;;;;;;;3.43;2.80;;;;;;;28.79;59.86;100232.31;4909121;29;20203;-74
2022/08/23 10:55:04;;;;;;;3.53;3.00;;;;;;;28.87;60.23;100227.19;4915709;29;20276;-75
2022/08/23 10:57:34;;;;;;;3.40;2.80;;;;;;;28.86;59.41;100222.84;4911476;29;20204;-74
2022/08/23 11:00:05;;;;;;;5.07;3.07;;;;;;;28.99;58.14;100218.09;4908595;29;20283;-75
2022/08/23 11:02:49;;;;;;;3.57;3.27;;;;;;;28.94;58.40;100220.31;4904266;29;20216;-75
2022/08/23 11:05:25;;;;;;;2.90;2.50;;;;;;;28.95;58.91;100214.03;4908256;29;20283;-75
2022/08/23 11:08:33;;;;;;;3.10;2.80;;;;;;;29.03;59.48;100210.69;4910361;29;20579;-75
2022/08/23 11:10:59;;;;;;;3.50;2.80;;;;;;;29.12;58.89;100203.69;4903586;29;20348;-77
2022/08/23 11:13:28;;;;;;;3.00;2.70;;;;;;;29.16;59.38;100203.28;4924916;29;20279;-76
2022/08/23 11:16:05;;;;;;;3.90;2.73;;;;;;;29.22;58.78;100201.88;4914496;29;20259;-76
2022/08/23 11:18:43;;;;;;;3.50;3.20;;;;;;;29.28;58.01;100198.69;4909315;29;20191;-76
2022/08/23 11:21:17;;;;;;;4.60;3.27;;;;;;;29.17;57.92;100198.81;4906716;28;20203;-76
2022/08/23 11:23:53;;;;;;;3.67;2.60;;;;;;;29.21;57.77;100200.19;4908347;29;20200;-74
2022/08/23 11:26:21;;;;;;;3.83;2.87;;;;;;;29.20;56.88;100199.38;4901014;29;20525;-75
2022/08/23 11:28:48;;;;;;;2.93;2.63;;;;;;;29.24;56.94;100191.09;4898599;29;20230;-77
2022/08/23 11:31:46;;;;;;;3.70;3.40;;;;;;;29.43;57.62;100180.47;4909453;28;20676;-76
2022/08/23 11:34:29;;;;;;;3.10;2.60;;;;;;;29.65;57.06;100187.34;4921248;29;20654;-76
2022/08/23 11:37:20;;;;;;;3.83;2.70;;;;;;;29.73;56.81;100185.81;4905079;29;20635;-75
2022/08/23 11:39:56;;;;;;;4.67;2.80;;;;;;;29.76;56.59;100191.72;4889517;29;20225;-75
2022/08/23 11:42:22;;;;;;;4.40;3.13;;;;;;;29.85;55.18;100187.34;4908508;29;20192;-76
2022/08/23 11:44:48;;;;;;;2.70;2.50;;;;;;;29.79;55.73;100186.09;4901242;29;20538;-74